createdAt,value
2022-12-01T00:01:21.847Z,101250.44
2022-12-01T00:03:50.237Z,101245.59
2022-12-01T00:06:20.240Z,101252.47
2022-12-01T00:09:03.843Z,101247.81
2022-12-01T00:11:32.216Z,101249.44
2022-12-01T00:14:04.159Z,101251.88
2022-12-01T00:16:32.573Z,101250.66
2022-12-01T00:19:00.845Z,101238.06
2022-12-01T00:21:28.929Z,101238.69
2022-12-01T00:23:58.305Z,101241.91
2022-12-01T00:26:27.992Z,101247.78
2022-12-01T00:28:58.238Z,101245.75
2022-12-01T00:31:28.074Z,101249.81
2022-12-01T00:33:56.727Z,101251.03
2022-12-01T00:36:24.944Z,101253.06
2022-12-01T00:38:53.751Z,101251.44
2022-12-01T00:41:21.875Z,101255.91
2022-12-01T00:43:51.150Z,101257.72
2022-12-01T00:46:19.292Z,101251.44
2022-12-01T00:48:48.896Z,101262.00
2022-12-01T00:51:16.850Z,101264.03
2022-12-01T00:53:45.957Z,101259.16
2022-12-01T00:56:14.858Z,101259.38
2022-12-01T00:58:43.021Z,101251.47
2022-12-01T01:01:10.976Z,101260.38
2022-12-01T01:03:39.128Z,101262.44
2022-12-01T01:06:11.163Z,101262.44
2022-12-01T01:08:39.868Z,101257.97
2022-12-01T01:11:08.651Z,101262.25
2022-12-01T01:13:37.832Z,101262.81
2022-12-01T01:16:12.144Z,101268.91
2022-12-01T01:18:40.360Z,101268.72
2022-12-01T01:21:12.462Z,101271.97
2022-12-01T01:23:40.688Z,101269.31
2022-12-01T01:26:10.544Z,101272.97
2022-12-01T01:28:41.454Z,101271.34
2022-12-01T01:31:10.557Z,101273.00
2022-12-01T01:33:38.962Z,101272.59
2022-12-01T01:36:07.347Z,101281.69
2022-12-01T01:38:37.257Z,101279.47
2022-12-01T01:41:06.765Z,101268.50
2022-12-01T01:43:42.080Z,101286.19
2022-12-01T01:46:12.303Z,101283.34
2022-12-01T01:48:42.374Z,101276.22
2022-12-01T01:51:12.410Z,101277.84
2022-12-01T01:53:42.375Z,101286.38
2022-12-01T01:56:10.636Z,101285.56
2022-12-01T01:58:39.399Z,101284.75
2022-12-01T02:01:07.767Z,101287.38
2022-12-01T02:03:38.006Z,101277.84
2022-12-01T02:06:06.471Z,101283.13
2022-12-01T02:08:36.044Z,101278.06
2022-12-01T02:11:17.338Z,101286.75
2022-12-01T02:13:52.309Z,101285.16
2022-12-01T02:16:25.732Z,101285.16
2022-12-01T02:19:00.689Z,101296.50
2022-12-01T02:21:45.453Z,101279.88
2022-12-01T02:24:45.433Z,101280.28
2022-12-01T02:27:25.138Z,101284.31
2022-12-01T02:30:09.093Z,101278.25
2022-12-01T02:32:45.734Z,101283.53
2022-12-01T02:35:17.614Z,101278.25
2022-12-01T02:37:50.314Z,101284.31
2022-12-01T02:40:21.712Z,101275.44
2022-12-01T02:42:54.531Z,101270.16
2022-12-01T02:45:29.481Z,101265.28
2022-12-01T02:48:02.508Z,101270.56
2022-12-01T02:50:32.538Z,101275.84
2022-12-01T02:53:02.274Z,101275.84
2022-12-01T02:55:30.431Z,101276.41
2022-12-01T02:57:58.378Z,101274.59
2022-12-01T03:00:26.873Z,101275.00
2022-12-01T03:03:21.133Z,101278.25
2022-12-01T03:05:55.455Z,101276.00
2022-12-01T03:08:28.146Z,101273.78
2022-12-01T03:10:57.981Z,101277.66
2022-12-01T03:13:34.441Z,101270.16
2022-12-01T03:16:09.216Z,101276.19
2022-12-01T03:18:40.663Z,101271.34
2022-12-01T03:21:11.582Z,101262.63
2022-12-01T03:23:45.264Z,101262.44
2022-12-01T03:26:16.892Z,101268.47
2022-12-01T03:28:47.275Z,101275.38
2022-12-01T03:31:18.394Z,101276.16
2022-12-01T03:33:50.942Z,101262.41
2022-12-01T03:36:23.557Z,101264.44
2022-12-01T03:38:55.334Z,101274.16
2022-12-01T03:41:26.144Z,101272.34
2022-12-01T03:43:57.537Z,101277.81
2022-12-01T03:46:32.368Z,101273.31
2022-12-01T03:49:03.161Z,101278.19
2022-12-01T03:51:34.985Z,101266.03
2022-12-01T03:54:08.180Z,101278.56
2022-12-01T03:56:39.446Z,101278.00
2022-12-01T03:59:09.778Z,101277.38
2022-12-01T04:01:38.077Z,101278.38
2022-12-01T04:04:11.410Z,101276.13
2022-12-01T04:06:40.221Z,101291.94
2022-12-01T04:09:08.060Z,101284.63
2022-12-01T04:11:53.693Z,101283.78
2022-12-01T04:14:22.007Z,101285.00
2022-12-01T04:16:50.188Z,101287.44
2022-12-01T04:19:19.560Z,101290.28
2022-12-01T04:21:47.808Z,101289.03
2022-12-01T04:24:15.705Z,101293.09
2022-12-01T04:26:45.927Z,101283.94
2022-12-01T04:29:14.357Z,101287.38
2022-12-01T04:31:42.570Z,101289.38
2022-12-01T04:34:11.153Z,101295.66
2022-12-01T04:36:40.643Z,101293.22
2022-12-01T04:39:08.529Z,101297.47
2022-12-01T04:41:36.697Z,101299.09
2022-12-01T04:44:04.641Z,101298.47
2022-12-01T04:46:32.848Z,101297.84
2022-12-01T04:49:00.784Z,101305.09
2022-12-01T04:51:28.971Z,101301.88
2022-12-01T04:53:58.252Z,101303.88
2022-12-01T04:56:26.412Z,101299.41
2022-12-01T04:58:54.393Z,101293.34
2022-12-01T05:01:22.660Z,101290.53
2022-12-01T05:03:50.637Z,101300.84
2022-12-01T05:06:20.505Z,101304.31
2022-12-01T05:08:48.528Z,101300.22
2022-12-01T05:11:18.721Z,101309.94
2022-12-01T05:13:48.042Z,101310.75
2022-12-01T05:16:18.176Z,101311.56
2022-12-01T05:18:49.230Z,101307.50
2022-12-01T05:21:16.574Z,101310.13
2022-12-01T05:23:45.457Z,101309.16
2022-12-01T05:26:13.659Z,101310.13
2022-12-01T05:28:43.047Z,101315.78
2022-12-01T05:31:11.302Z,101316.19
2022-12-01T05:33:39.384Z,101320.78
2022-12-01T05:36:08.091Z,101313.91
2022-12-01T05:38:36.006Z,101306.22
2022-12-01T05:41:04.175Z,101312.66
2022-12-01T05:43:32.132Z,101317.13
2022-12-01T05:46:01.734Z,101314.69
2022-12-01T05:48:29.738Z,101306.19
2022-12-01T05:50:58.100Z,101311.25
2022-12-01T05:53:26.095Z,101305.41
2022-12-01T05:55:54.827Z,101311.94
2022-12-01T05:58:23.136Z,101311.53
2022-12-01T06:00:51.304Z,101309.53
2022-12-01T06:03:23.216Z,101318.41
2022-12-01T06:05:51.465Z,101328.16
2022-12-01T06:08:19.572Z,101325.69
2022-12-01T06:10:47.798Z,101321.16
2022-12-01T06:13:16.870Z,101323.59
2022-12-01T06:15:45.101Z,101327.72
2022-12-01T06:18:13.066Z,101324.06
2022-12-01T06:20:42.624Z,101328.94
2022-12-01T06:23:10.584Z,101328.53
2022-12-01T06:25:38.758Z,101318.03
2022-12-01T06:28:06.638Z,101325.56
2022-12-01T06:30:34.919Z,101326.53
2022-12-01T06:33:02.873Z,101335.44
2022-12-01T06:35:30.972Z,101333.81
2022-12-01T06:38:00.271Z,101336.81
2022-12-01T06:40:28.416Z,101338.66
2022-12-01T06:42:56.434Z,101341.47
2022-12-01T06:45:24.540Z,101338.59
2022-12-01T06:47:54.502Z,101338.97
2022-12-01T06:50:22.781Z,101344.41
2022-12-01T06:52:50.755Z,101338.16
2022-12-01T06:55:20.326Z,101338.97
2022-12-01T06:57:48.446Z,101346.72
2022-12-01T07:00:17.748Z,101342.31
2022-12-01T07:02:46.110Z,101342.31
2022-12-01T07:05:14.476Z,101350.22
2022-12-01T07:07:42.478Z,101342.31
2022-12-01T07:10:12.020Z,101344.31
2022-12-01T07:12:41.876Z,101342.72
2022-12-01T07:15:10.729Z,101347.97
2022-12-01T07:17:38.622Z,101345.56
2022-12-01T07:20:10.052Z,101352.06
2022-12-01T07:22:38.677Z,101356.97
2022-12-01T07:25:08.005Z,101354.53
2022-12-01T07:27:35.986Z,101356.97
2022-12-01T07:30:06.889Z,101358.56
2022-12-01T07:32:34.923Z,101355.31
2022-12-01T07:35:03.145Z,101353.72
2022-12-01T07:37:31.139Z,101359.75
2022-12-01T07:39:59.429Z,101354.84
2022-12-01T07:42:27.329Z,101362.50
2022-12-01T07:44:55.562Z,101358.00
2022-12-01T07:47:24.922Z,101365.25
2022-12-01T07:49:53.141Z,101368.28
2022-12-01T07:52:21.150Z,101369.28
2022-12-01T07:54:49.438Z,101374.13
2022-12-01T07:57:19.433Z,101362.78
2022-12-01T07:59:47.922Z,101361.16
2022-12-01T08:02:16.227Z,101365.59
2022-12-01T08:04:45.853Z,101360.34
2022-12-01T08:07:13.758Z,101372.06
2022-12-01T08:09:41.941Z,101366.00
2022-12-01T08:12:10.293Z,101367.06
2022-12-01T08:14:38.436Z,101369.69
2022-12-01T08:17:06.377Z,101366.03
2022-12-01T08:19:34.545Z,101374.97
2022-12-01T08:22:03.922Z,101369.53
2022-12-01T08:24:32.230Z,101374.78
2022-12-01T08:27:00.179Z,101377.41
2022-12-01T08:29:28.570Z,101383.91
2022-12-01T08:31:58.565Z,101376.69
2022-12-01T08:34:26.828Z,101381.53
2022-12-01T08:36:54.964Z,101380.56
2022-12-01T08:39:24.560Z,101383.78
2022-12-01T08:41:52.476Z,101383.44
2022-12-01T08:44:20.689Z,101384.66
2022-12-01T08:46:48.798Z,101384.88
2022-12-01T08:49:17.217Z,101379.63
2022-12-01T08:51:45.190Z,101388.94
2022-12-01T08:54:13.485Z,101382.50
2022-12-01T08:56:44.993Z,101383.31
2022-12-01T08:59:13.288Z,101394.44
2022-12-01T09:01:51.818Z,101394.44
2022-12-01T09:04:21.692Z,101387.56
2022-12-01T09:06:51.039Z,101390.56
2022-12-01T09:09:21.284Z,101380.44
2022-12-01T09:11:52.166Z,101395.41
2022-12-01T09:14:21.366Z,101386.31
2022-12-01T09:16:50.720Z,101384.88
2022-12-01T09:19:24.676Z,101383.28
2022-12-01T09:21:53.400Z,101388.91
2022-12-01T09:24:21.698Z,101388.91
2022-12-01T09:26:51.546Z,101390.53
2022-12-01T09:29:19.753Z,101394.97
2022-12-01T09:31:47.918Z,101390.94
2022-12-01T09:34:18.392Z,101385.66
2022-12-01T09:36:47.557Z,101386.84
2022-12-01T09:39:17.106Z,101382.41
2022-12-01T09:41:46.213Z,101382.81
2022-12-01T09:44:20.788Z,101387.03
2022-12-01T09:46:52.163Z,101381.16
2022-12-01T09:49:23.856Z,101385.63
2022-12-01T09:51:52.197Z,101380.16
2022-12-01T09:54:20.502Z,101371.47
2022-12-01T09:56:52.404Z,101375.53
2022-12-01T09:59:24.628Z,101379.38
2022-12-01T10:01:56.212Z,101374.75
2022-12-01T10:04:28.558Z,101372.75
2022-12-01T10:07:00.476Z,101368.09
2022-12-01T10:09:34.066Z,101367.09
2022-12-01T10:12:08.902Z,101370.34
2022-12-01T10:14:38.529Z,101366.50
2022-12-01T10:17:14.079Z,101357.81
2022-12-01T10:19:46.847Z,101356.25
2022-12-01T10:22:24.741Z,101351.00
2022-12-01T10:24:55.816Z,101345.78
2022-12-01T10:27:33.513Z,101341.72
2022-12-01T10:30:07.230Z,101342.97
2022-12-01T10:32:41.860Z,101342.16
2022-12-01T10:35:11.944Z,101326.78
2022-12-01T10:37:39.957Z,101330.88
2022-12-01T10:40:13.880Z,101333.50
2022-12-01T10:42:43.802Z,101328.44
2022-12-01T10:45:18.047Z,101323.97
2022-12-01T10:48:10.120Z,101317.09
2022-12-01T10:50:38.560Z,101309.81
2022-12-01T10:53:06.401Z,101306.16
2022-12-01T10:55:36.270Z,101305.75
2022-12-01T10:58:09.422Z,101308.38
2022-12-01T11:00:59.237Z,101307.38
2022-12-01T11:03:29.921Z,101291.59
2022-12-01T11:05:59.570Z,101304.75
2022-12-01T11:08:40.221Z,101298.25
2022-12-01T11:11:25.644Z,101287.53
2022-12-01T11:13:54.616Z,101285.50
2022-12-01T11:16:39.763Z,101287.53
2022-12-01T11:19:25.328Z,101285.50
2022-12-01T11:21:57.561Z,101287.13
2022-12-01T11:24:31.871Z,101288.75
2022-12-01T11:27:00.785Z,101280.25
2022-12-01T11:29:35.864Z,101281.25
2022-12-01T11:32:17.593Z,101285.91
2022-12-01T11:34:50.737Z,101290.78
2022-12-01T11:37:22.491Z,101287.13
2022-12-01T11:39:52.382Z,101290.38
2022-12-01T11:42:27.226Z,101279.03
2022-12-01T11:44:57.866Z,101278.22
2022-12-01T11:47:28.540Z,101287.53
2022-12-01T11:49:58.039Z,101281.06
2022-12-01T11:52:30.777Z,101283.50
2022-12-01T11:55:04.288Z,101275.41
2022-12-01T11:57:37.013Z,101282.28
2022-12-01T12:00:14.402Z,101270.72
2022-12-01T12:02:57.757Z,101263.63
2022-12-01T12:05:48.971Z,101266.28
2022-12-01T12:08:27.143Z,101264.84
2022-12-01T12:11:01.871Z,101266.06
2022-12-01T12:13:42.174Z,101271.72
2022-12-01T12:16:16.867Z,101263.22
2022-12-01T12:18:56.387Z,101259.59
2022-12-01T12:21:33.187Z,101264.84
2022-12-01T12:24:29.123Z,101267.69
2022-12-01T12:27:02.493Z,101260.97
2022-12-01T12:29:39.500Z,101257.34
2022-12-01T12:32:20.648Z,101262.00
2022-12-01T12:34:53.573Z,101263.59
2022-12-01T12:37:25.707Z,101251.47
2022-12-01T12:40:06.141Z,101256.75
2022-12-01T12:42:53.169Z,101252.66
2022-12-01T12:45:27.161Z,101255.94
2022-12-01T12:48:08.053Z,101248.63
2022-12-01T12:50:44.739Z,101248.63
2022-12-01T12:53:18.455Z,101244.97
2022-12-01T12:55:49.259Z,101248.63
2022-12-01T12:58:20.814Z,101249.63
2022-12-01T13:00:51.826Z,101247.41
2022-12-01T13:03:26.849Z,101242.53
2022-12-01T13:06:05.722Z,101244.56
2022-12-01T13:08:37.909Z,101234.84
2022-12-01T13:11:11.620Z,101230.41
2022-12-01T13:13:43.425Z,101240.53
2022-12-01T13:16:14.346Z,101242.13
2022-12-01T13:18:45.449Z,101243.78
2022-12-01T13:21:17.573Z,101244.97
2022-12-01T13:23:46.859Z,101248.22
2022-12-01T13:26:15.801Z,101246.22
2022-12-01T13:28:45.713Z,101245.19
2022-12-01T13:31:15.155Z,101244.19
2022-12-01T13:33:46.734Z,101234.03
2022-12-01T13:36:45.135Z,101232.44
2022-12-01T13:39:14.429Z,101230.81
2022-12-01T13:41:44.445Z,101232.44
2022-12-01T13:44:22.953Z,101235.69
2022-12-01T13:46:52.805Z,101233.25
2022-12-01T13:49:41.933Z,101236.09
2022-12-01T13:52:30.146Z,101230.41
2022-12-01T13:55:04.697Z,101231.03
2022-12-01T13:57:36.123Z,101232.84
2022-12-01T14:00:23.596Z,101230.00
2022-12-01T14:03:28.681Z,101225.34
2022-12-01T14:05:57.723Z,101221.59
2022-12-01T14:08:29.124Z,101217.13
2022-12-01T14:10:58.960Z,101214.31
2022-12-01T14:13:28.198Z,101212.91
2022-12-01T14:15:57.364Z,101216.16
2022-12-01T14:18:34.766Z,101215.75
2022-12-01T14:21:04.490Z,101222.66
2022-12-01T14:23:35.204Z,101225.72
2022-12-01T14:26:18.084Z,101217.81
2022-12-01T14:29:29.578Z,101214.56
2022-12-01T14:32:24.820Z,101213.75
2022-12-01T14:35:00.347Z,101211.94
2022-12-01T14:37:36.363Z,101215.38
2022-12-01T14:40:09.651Z,101217.84
2022-12-01T14:42:57.298Z,101213.38
2022-12-01T14:45:28.796Z,101216.22
2022-12-01T14:48:02.909Z,101211.78
2022-12-01T14:50:43.513Z,101214.00
2022-12-01T14:53:22.387Z,101215.81
2022-12-01T14:55:56.163Z,101222.72
2022-12-01T14:58:27.321Z,101224.31
2022-12-01T15:01:08.411Z,101225.13
2022-12-01T15:03:39.700Z,101227.56
2022-12-01T15:06:08.537Z,101222.28
2022-12-01T15:08:49.377Z,101227.56
2022-12-01T15:11:25.773Z,101223.69
2022-12-01T15:13:55.611Z,101219.44
2022-12-01T15:16:25.141Z,101225.31
2022-12-01T15:18:53.670Z,101226.50
2022-12-01T15:21:23.647Z,101216.38
2022-12-01T15:23:56.902Z,101217.81
2022-12-01T15:26:29.678Z,101220.22
2022-12-01T15:29:22.465Z,101218.38
2022-12-01T15:31:53.353Z,101227.06
2022-12-01T15:34:24.493Z,101215.31
2022-12-01T15:36:53.601Z,101217.34
2022-12-01T15:39:30.986Z,101219.34
2022-12-01T15:42:00.570Z,101218.53
2022-12-01T15:44:30.702Z,101229.88
2022-12-01T15:46:58.866Z,101234.75
2022-12-01T15:49:29.695Z,101229.06
2022-12-01T15:52:07.069Z,101225.47
2022-12-01T15:54:35.478Z,101228.09
2022-12-01T15:57:06.119Z,101234.97
2022-12-01T15:59:37.584Z,101235.38
2022-12-01T16:02:08.323Z,101233.13
2022-12-01T16:04:36.674Z,101232.72
2022-12-01T16:07:07.119Z,101222.59
2022-12-01T16:09:36.781Z,101227.03
2022-12-01T16:12:21.833Z,101222.78
2022-12-01T16:14:52.418Z,101228.41
2022-12-01T16:17:21.150Z,101218.28
2022-12-01T16:19:49.162Z,101225.59
2022-12-01T16:22:19.651Z,101219.72
2022-12-01T16:24:51.104Z,101221.72
2022-12-01T16:27:23.221Z,101214.84
2022-12-01T16:29:52.975Z,101219.47
2022-12-01T16:32:23.980Z,101220.47
2022-12-01T16:34:53.395Z,101221.50
2022-12-01T16:37:22.495Z,101220.84
2022-12-01T16:39:50.962Z,101221.22
2022-12-01T16:42:21.630Z,101223.25
2022-12-01T16:44:50.658Z,101228.50
2022-12-01T16:47:20.934Z,101227.28
2022-12-01T16:49:48.951Z,101226.03
2022-12-01T16:55:06.130Z,101231.06
2022-12-01T16:57:35.723Z,101228.84
2022-12-01T17:00:04.436Z,101225.56
2022-12-01T17:02:32.647Z,101229.22
2022-12-01T17:05:00.885Z,101231.22
2022-12-01T17:07:29.075Z,101234.88
2022-12-01T17:09:57.077Z,101233.25
2022-12-01T17:12:26.718Z,101234.25
2022-12-01T17:14:56.122Z,101236.88
2022-12-01T17:17:24.537Z,101240.53
2022-12-01T17:19:52.826Z,101239.69
2022-12-01T17:22:21.155Z,101233.63
2022-12-01T17:24:51.249Z,101237.91
2022-12-01T17:27:19.800Z,101242.97
2022-12-01T17:29:47.809Z,101245.38
2022-12-01T17:32:17.364Z,101248.66
2022-12-01T17:34:45.561Z,101248.66
2022-12-01T17:37:20.504Z,101240.94
2022-12-01T17:39:49.417Z,101240.94
2022-12-01T17:42:17.730Z,101241.75
2022-12-01T17:44:45.644Z,101244.56
2022-12-01T17:47:13.930Z,101250.66
2022-12-01T17:49:43.233Z,101243.78
2022-12-01T17:52:11.530Z,101252.25
2022-12-01T17:54:39.585Z,101237.31
2022-12-01T17:57:08.298Z,101240.94
2022-12-01T17:59:37.649Z,101240.75
2022-12-01T18:02:06.004Z,101245.00
2022-12-01T18:04:34.505Z,101243.97
2022-12-01T18:07:04.313Z,101239.75
2022-12-01T18:09:32.185Z,101246.59
2022-12-01T18:12:01.522Z,101251.88
2022-12-01T18:14:32.630Z,101253.50
2022-12-01T18:17:00.917Z,101249.06
2022-12-01T18:19:28.862Z,101248.25
2022-12-01T18:21:56.960Z,101239.75
2022-12-01T18:24:26.574Z,101244.19
2022-12-01T18:26:55.545Z,101240.75
2022-12-01T18:29:25.901Z,101241.75
2022-12-01T18:31:54.800Z,101239.94
2022-12-01T18:34:22.893Z,101238.13
2022-12-01T18:36:51.012Z,101238.72
2022-12-01T18:39:19.030Z,101234.47
2022-12-01T18:41:48.552Z,101232.88
2022-12-01T18:44:16.482Z,101242.56
2022-12-01T18:46:44.777Z,101239.31
2022-12-01T18:49:13.138Z,101235.25
2022-12-01T18:51:41.412Z,101233.25
2022-12-01T18:54:12.045Z,101242.13
2022-12-01T18:56:40.248Z,101227.78
2022-12-01T18:59:11.897Z,101228.31
2022-12-01T19:01:43.526Z,101227.53
2022-12-01T19:04:12.099Z,101225.91
2022-12-01T19:06:41.759Z,101220.63
2022-12-01T19:09:11.219Z,101219.03
2022-12-01T19:11:41.197Z,101222.66
2022-12-01T19:14:14.120Z,101224.69
2022-12-01T19:16:42.767Z,101222.44
2022-12-01T19:19:11.507Z,101219.81
2022-12-01T19:21:39.691Z,101221.00
2022-12-01T19:24:08.227Z,101217.38
2022-12-01T19:26:36.669Z,101221.81
2022-12-01T19:29:04.718Z,101221.00
2022-12-01T19:31:34.290Z,101222.19
2022-12-01T19:34:04.337Z,101227.47
2022-12-01T19:36:32.610Z,101230.09
2022-12-01T19:39:03.992Z,101223.19
2022-12-01T19:41:35.886Z,101226.63
2022-12-01T19:44:06.395Z,101226.22
2022-12-01T19:46:35.898Z,101225.38
2022-12-01T19:49:05.558Z,101223.78
2022-12-01T19:51:35.837Z,101225.56
2022-12-01T19:54:04.559Z,101222.34
2022-12-01T19:56:33.165Z,101218.09
2022-12-01T19:59:01.478Z,101223.34
2022-12-01T20:01:29.794Z,101217.09
2022-12-01T20:03:59.146Z,101216.91
2022-12-01T20:06:28.780Z,101221.97
2022-12-01T20:08:59.146Z,101216.09
2022-12-01T20:11:29.676Z,101217.69
2022-12-01T20:13:57.745Z,101216.91
2022-12-01T20:16:27.416Z,101205.56
2022-12-01T20:18:55.835Z,101200.31
2022-12-01T20:21:26.669Z,101210.81
2022-12-01T20:23:57.969Z,101198.34
2022-12-01T20:26:30.594Z,101202.47
2022-12-01T20:29:01.398Z,101204.94
2022-12-01T20:31:31.207Z,101198.91
2022-12-01T20:34:01.067Z,101202.56
2022-12-01T20:36:30.759Z,101198.16
2022-12-01T20:38:58.780Z,101198.19
2022-12-01T20:41:27.338Z,101199.44
2022-12-01T20:43:55.229Z,101195.41
2022-12-01T20:46:23.544Z,101200.66
2022-12-01T20:48:51.606Z,101204.69
2022-12-01T20:51:20.129Z,101207.31
2022-12-01T20:54:12.434Z,101206.34
2022-12-01T20:56:38.191Z,101198.59
2022-12-01T20:59:06.275Z,101199.34
2022-12-01T21:01:34.575Z,101198.94
2022-12-01T21:04:02.536Z,101190.84
2022-12-01T21:06:30.820Z,101192.03
2022-12-01T21:09:00.552Z,101206.78
2022-12-01T21:11:48.427Z,101202.47
2022-12-01T21:14:19.309Z,101198.00
2022-12-01T21:16:49.148Z,101193.53
2022-12-01T21:19:20.411Z,101189.66
2022-12-01T21:21:48.623Z,101191.06
2022-12-01T21:24:19.809Z,101186.78
2022-12-01T21:26:49.274Z,101193.44
2022-12-01T21:29:24.973Z,101190.19
2022-12-01T21:31:55.346Z,101187.75
2022-12-01T21:34:24.629Z,101186.13
2022-12-01T21:36:54.798Z,101189.56
2022-12-01T21:39:26.389Z,101192.19
2022-12-01T21:41:56.929Z,101192.81
2022-12-01T21:44:29.915Z,101195.84
2022-12-01T21:46:59.101Z,101192.19
2022-12-01T21:49:33.181Z,101185.34
2022-12-01T21:52:03.368Z,101195.84
2022-12-01T21:54:32.621Z,101192.59
2022-12-01T21:57:00.774Z,101193.78
2022-12-01T21:59:28.894Z,101190.13
2022-12-01T22:01:58.137Z,101193.69
2022-12-01T22:04:30.554Z,101195.66
2022-12-01T22:06:59.291Z,101192.78
2022-12-01T22:09:29.747Z,101191.53
2022-12-01T22:12:01.717Z,101190.31
2022-12-01T22:14:33.414Z,101187.25
2022-12-01T22:17:03.580Z,101191.28
2022-12-01T22:19:32.974Z,101188.66
2022-12-01T22:22:03.808Z,101182.63
2022-12-01T22:24:39.384Z,101180.16
2022-12-01T22:27:15.567Z,101181.19
2022-12-01T22:29:45.300Z,101184.00
2022-12-01T22:32:39.216Z,101184.81
2022-12-01T22:35:32.884Z,101175.69
2022-12-01T22:38:21.537Z,101182.56
2022-12-01T22:40:57.181Z,101175.25
2022-12-01T22:43:41.501Z,101169.56
2022-12-01T22:46:25.048Z,101169.94
2022-12-01T22:48:54.785Z,101175.19
2022-12-01T22:51:37.948Z,101170.94
2022-12-01T22:54:27.585Z,101159.00
2022-12-01T22:57:06.934Z,101167.06
2022-12-01T22:59:37.769Z,101169.44
2022-12-01T23:02:19.302Z,101161.34
2022-12-01T23:04:50.603Z,101159.06
2022-12-01T23:07:33.464Z,101156.84
2022-12-01T23:10:13.147Z,101169.31
2022-12-01T23:12:41.491Z,101167.09
2022-12-01T23:15:27.199Z,101157.97
2022-12-01T23:17:55.330Z,101172.06
2022-12-01T23:20:32.638Z,101165.59
2022-12-01T23:23:02.608Z,101163.78
2022-12-01T23:25:31.274Z,101157.91
2022-12-01T23:28:01.586Z,101158.09
2022-12-01T23:30:31.143Z,101160.28
2022-12-01T23:33:16.037Z,101155.22
2022-12-01T23:35:47.447Z,101152.59
2022-12-01T23:38:18.067Z,101148.97
2022-12-01T23:40:46.911Z,101144.75
2022-12-01T23:43:19.864Z,101129.97
2022-12-01T23:45:51.619Z,101141.72
2022-12-01T23:48:21.606Z,101132.84
2022-12-01T23:50:52.031Z,101125.63
2022-12-01T23:53:26.634Z,101118.56
2022-12-01T23:55:55.198Z,101121.63
2022-12-01T23:58:23.395Z,101107.50
